Time;durP1;ratioP1;P1;durP2;ratioP2;P2;SDS_P1;SDS_P2;PMS_P1;PMS_P2;Temp;Humidity;BMP_temperature;BMP_pressure;BME280_temperature;BME280_humidity;BME280_pressure;Samples;Min_cycle;Max_cycle;Signal;HPM_P1;HPM_P2
2024/04/03 08:18:57;;;;;;;4.78;1.65;;;;;;;11.36;100.00;99603.84;7407506;19;20321;-75
2024/04/03 08:21:23;;;;;;;4.80;1.35;;;;;;;11.30;100.00;99582.19;7417230;19;20010;-72
2024/04/03 08:23:49;;;;;;;7.50;1.75;;;;;;;11.39;100.00;99579.81;7410775;19;20014;-74
2024/04/03 08:26:16;;;;;;;5.15;1.88;;;;;;;11.57;100.00;99602.50;7417194;19;20018;-74
2024/04/03 08:28:42;;;;;;;6.75;1.80;;;;;;;11.57;100.00;99596.34;7413170;19;20018;-75
2024/04/03 08:31:12;;;;;;;6.90;1.52;;;;;;;11.48;100.00;99586.34;7416997;19;20049;-75
2024/04/03 08:33:38;;;;;;;5.07;1.88;;;;;;;11.71;100.00;99606.06;7412570;19;20022;-74
2024/04/03 08:36:07;;;;;;;6.40;1.70;;;;;;;11.73;100.00;99605.03;7415034;19;20137;-74
2024/04/03 08:38:33;;;;;;;6.20;2.05;;;;;;;11.74;100.00;99587.31;7415043;19;20021;-76
2024/04/03 08:41:00;;;;;;;4.65;1.73;;;;;;;11.84;100.00;99607.00;7414757;19;20011;-74
2024/04/03 08:43:26;;;;;;;4.13;1.30;;;;;;;11.80;100.00;99603.72;7409474;19;20014;-76
2024/04/03 08:45:55;;;;;;;2.97;1.42;;;;;;;11.84;100.00;99607.00;7409232;19;20010;-74
2024/04/03 08:48:22;;;;;;;5.00;1.45;;;;;;;11.79;100.00;99602.03;7408214;19;20006;-76
2024/04/03 08:50:49;;;;;;;5.82;1.42;;;;;;;11.82;100.00;99598.31;7411579;19;20594;-74
2024/04/03 08:53:18;;;;;;;4.72;1.50;;;;;;;11.87;100.00;99598.88;7415529;19;20010;-74
2024/04/03 08:55:49;;;;;;;6.57;1.70;;;;;;;11.62;100.00;99561.59;7417204;19;20017;-75
2024/04/03 08:58:17;;;;;;;4.85;1.45;;;;;;;11.44;100.00;99518.56;7413672;19;20688;-73
2024/04/03 09:00:43;;;;;;;4.50;1.40;;;;;;;11.90;100.00;99580.94;7415243;19;20014;-75
2024/04/03 09:03:11;;;;;;;4.03;1.33;;;;;;;11.74;100.00;99551.03;7418763;19;20002;-75
2024/04/03 09:05:37;;;;;;;3.95;1.67;;;;;;;11.83;100.00;99549.59;7418951;19;20030;-74
2024/04/03 09:08:06;;;;;;;5.03;1.60;;;;;;;11.95;100.00;99567.41;7419154;19;20023;-74
2024/04/03 09:10:38;;;;;;;5.60;1.60;;;;;;;12.17;100.00;99585.38;7414187;19;20022;-74
2024/04/03 09:13:08;;;;;;;5.13;1.50;;;;;;;12.14;100.00;99580.28;7419893;19;20017;-75
2024/04/03 09:15:34;;;;;;;3.38;1.52;;;;;;;11.95;100.00;99548.81;7420583;19;20041;-75
2024/04/03 09:18:05;;;;;;;5.38;1.67;;;;;;;12.20;100.00;99570.13;7416877;19;20018;-76
2024/04/03 09:20:31;;;;;;;2.88;1.05;;;;;;;12.17;100.00;99580.94;7411852;19;20014;-74
2024/04/03 09:22:57;;;;;;;4.28;1.60;;;;;;;12.14;100.00;99567.84;7416618;19;20043;-75
2024/04/03 09:25:27;;;;;;;4.88;1.55;;;;;;;11.89;100.00;99520.88;7412475;19;20360;-71
2024/04/03 09:28:04;;;;;;;6.78;1.90;;;;;;;11.90;100.00;99519.94;7416234;19;20050;-73
2024/04/03 09:30:33;;;;;;;7.05;1.50;;;;;;;12.29;100.00;99566.84;7376391;19;20022;-72
2024/04/03 09:32:59;;;;;;;4.80;1.35;;;;;;;12.16;100.00;99547.38;7386225;19;20021;-72
2024/04/03 09:35:30;;;;;;;3.15;1.55;;;;;;;12.25;100.00;99565.34;7384897;19;20014;-74
2024/04/03 09:37:56;;;;;;;5.28;1.67;;;;;;;12.23;100.00;99554.00;7385515;19;20026;-72
2024/04/03 09:40:27;;;;;;;6.22;2.05;;;;;;;12.33;100.00;99567.47;7386953;19;20018;-72
2024/04/03 09:43:19;;;;;;;3.10;1.50;;;;;;;12.41;100.00;99564.31;7406940;19;20018;-70
2024/04/03 09:45:51;;;;;;;5.55;1.60;;;;;;;12.34;100.00;99545.28;7423539;19;20055;-70
2024/04/03 09:48:25;;;;;;;2.97;1.48;;;;;;;12.25;100.00;99530.00;7421273;19;20043;-71
2024/04/03 09:50:50;;;;;;;6.10;1.40;;;;;;;12.18;100.00;99510.97;7408657;19;20014;-71
2024/04/03 09:53:22;;;;;;;3.35;1.20;;;;;;;12.21;100.00;99539.97;7409683;19;20010;-72
2024/04/03 09:55:52;;;;;;;3.22;1.20;;;;;;;12.13;100.00;99528.16;7403241;19;20010;-73
2024/04/03 09:58:20;;;;;;;4.88;1.20;;;;;;;12.36;100.00;99530.13;7387762;19;20380;-74
2024/04/03 10:00:51;;;;;;;2.80;1.23;;;;;;;12.48;100.00;99513.34;7384596;19;20113;-75
2024/04/03 10:03:28;;;;;;;2.97;1.20;;;;;;;12.48;100.00;99512.50;7382199;19;20482;-73
2024/04/03 10:06:11;;;;;;;4.90;1.63;;;;;;;12.60;100.00;99531.06;7387145;19;20047;-73
2024/04/03 10:08:41;;;;;;;4.53;1.60;;;;;;;12.80;100.00;99528.84;7385057;19;20478;-74
2024/04/03 10:11:11;;;;;;;5.50;1.75;;;;;;;12.87;100.00;99517.69;7383890;19;20039;-72
2024/04/03 10:13:40;;;;;;;5.68;2.25;;;;;;;13.01;100.00;99519.38;7385020;19;20011;-72
2024/04/03 10:16:12;;;;;;;4.70;1.48;;;;;;;13.10;100.00;99520.53;7363980;19;20018;-74
2024/04/03 10:18:39;;;;;;;4.90;1.88;;;;;;;12.99;100.00;99500.88;7383983;19;20850;-72
2024/04/03 10:21:09;;;;;;;4.32;1.85;;;;;;;13.22;100.00;99509.88;7380842;19;20003;-74
2024/04/03 10:23:46;;;;;;;4.28;1.70;;;;;;;13.56;100.00;99502.13;7384477;19;20017;-71
2024/04/03 10:26:15;;;;;;;3.70;1.65;;;;;;;13.48;100.00;99478.75;7383588;19;20021;-71
2024/04/03 10:28:41;;;;;;;7.55;2.15;;;;;;;13.53;100.00;99489.94;7381620;19;20443;-73
2024/04/03 10:31:08;;;;;;;3.90;1.40;;;;;;;13.49;100.00;99501.75;7380548;19;20007;-73
2024/04/03 10:33:33;;;;;;;3.80;1.50;;;;;;;13.34;100.00;99484.25;7386742;19;20007;-73
2024/04/03 10:35:59;;;;;;;8.30;2.65;;;;;;;13.20;100.00;99471.97;7385483;19;20021;-73
2024/04/03 10:38:25;;;;;;;10.95;3.00;;;;;;;12.85;100.00;99444.38;7386020;19;20093;-72
2024/04/03 10:40:51;;;;;;;3.83;1.73;;;;;;;12.90;100.00;99471.47;7358603;19;20027;-72
2024/04/03 10:43:17;;;;;;;5.95;2.30;;;;;;;12.87;100.00;99488.47;7386545;19;20011;-73
2024/04/03 10:45:47;;;;;;;5.75;1.80;;;;;;;12.85;100.00;99498.34;7388293;19;20015;-72
2024/04/03 10:48:13;;;;;;;7.03;2.60;;;;;;;12.71;100.00;99497.63;7388878;19;20015;-73
2024/04/03 10:50:41;;;;;;;11.60;2.42;;;;;;;12.60;100.00;99504.50;7382544;19;20015;-72
2024/04/03 10:53:09;;;;;;;4.57;2.08;;;;;;;12.53;100.00;99499.75;7387857;19;20011;-72
2024/04/03 10:55:39;;;;;;;6.85;2.60;;;;;;;12.58;100.00;99513.56;7386859;19;20011;-74
2024/04/03 10:58:06;;;;;;;6.07;2.00;;;;;;;12.46;100.00;99496.66;7388724;19;20512;-72
2024/04/03 11:00:38;;;;;;;5.13;2.40;;;;;;;12.64;100.00;99521.94;7378301;19;20011;-72
2024/04/03 11:03:04;;;;;;;3.97;2.20;;;;;;;12.61;100.00;99502.72;7382288;19;20029;-71
2024/04/03 11:05:31;;;;;;;4.57;1.50;;;;;;;12.51;100.00;99470.66;7386247;19;20007;-73
2024/04/03 11:07:57;;;;;;;5.93;1.65;;;;;;;12.74;100.00;99522.19;7385000;19;20006;-72
2024/04/03 11:10:24;;;;;;;3.80;2.00;;;;;;;12.61;100.00;99506.22;7379691;19;20010;-73
2024/04/03 11:13:01;;;;;;;7.10;2.00;;;;;;;12.68;100.00;99527.06;7388043;19;20432;-73
2024/04/03 11:15:27;;;;;;;3.80;1.48;;;;;;;12.49;100.00;99496.44;7384827;19;20011;-73
2024/04/03 11:17:52;;;;;;;4.72;1.80;;;;;;;12.30;100.00;99480.94;7387139;19;20037;-72
2024/04/03 11:20:18;;;;;;;3.42;1.70;;;;;;;12.25;100.00;99488.38;7378379;19;20007;-73
2024/04/03 11:22:43;;;;;;;4.32;1.48;;;;;;;12.48;100.00;99516.00;7386250;19;20011;-73
2024/04/03 11:25:12;;;;;;;5.75;1.70;;;;;;;12.67;100.00;99526.19;7388593;19;20025;-73
2024/04/03 11:27:39;;;;;;;4.20;1.50;;;;;;;12.69;100.00;99513.66;7385426;19;20035;-72
2024/04/03 11:30:06;;;;;;;4.80;1.77;;;;;;;12.85;100.00;99506.31;7379102;19;20017;-74
2024/04/03 11:32:34;;;;;;;6.63;2.28;;;;;;;13.17;100.00;99525.34;7385116;19;20482;-73
2024/04/03 11:35:00;;;;;;;4.32;1.75;;;;;;;13.23;100.00;99524.03;7385966;19;20014;-73
2024/04/03 11:37:25;;;;;;;4.10;1.70;;;;;;;13.05;100.00;99501.41;7385205;19;20014;-73
2024/04/03 11:39:51;;;;;;;6.28;1.83;;;;;;;12.99;100.00;99515.97;7380408;19;20029;-72
2024/04/03 11:42:17;;;;;;;5.80;2.47;;;;;;;12.75;100.00;99480.53;7383563;19;20752;-73
2024/04/03 11:44:43;;;;;;;5.93;2.53;;;;;;;12.99;100.00;99511.50;7382083;19;20014;-72
2024/04/03 11:47:08;;;;;;;2.70;1.55;;;;;;;13.19;100.00;99519.91;7380840;19;20351;-72
2024/04/03 11:49:35;;;;;;;4.32;1.70;;;;;;;13.52;100.00;99537.91;7379258;19;20018;-72
2024/04/03 11:52:01;;;;;;;6.53;2.08;;;;;;;13.62;100.00;99515.00;7382547;19;20050;-73
2024/04/03 11:54:27;;;;;;;3.33;1.52;;;;;;;13.82;100.00;99510.88;7382484;19;20006;-72
2024/04/03 11:56:55;;;;;;;4.32;1.60;;;;;;;13.44;100.00;99429.41;7381945;19;20022;-73
2024/04/03 11:59:22;;;;;;;3.15;1.48;;;;;;;13.95;100.00;99522.28;7381722;19;20007;-74
2024/04/03 12:01:49;;;;;;;3.15;1.50;;;;;;;13.83;100.00;99509.91;7376116;19;20033;-72
2024/04/03 12:04:16;;;;;;;3.35;1.50;;;;;;;13.75;100.00;99506.94;7379052;19;20010;-74
2024/04/03 12:06:42;;;;;;;3.10;1.10;;;;;;;13.82;100.00;99510.88;7381531;19;20018;-73
2024/04/03 12:09:08;;;;;;;1.70;0.70;;;;;;;13.71;100.00;99506.31;7379208;19;20010;-71
2024/04/03 12:11:34;;;;;;;3.55;1.30;;;;;;;13.84;100.00;99507.13;7379226;19;20030;-72
2024/04/03 12:14:07;;;;;;;2.63;1.27;;;;;;;13.72;100.00;99470.78;7380817;19;20038;-72
2024/04/03 12:16:38;;;;;;;4.60;1.40;;;;;;;13.74;100.00;99495.44;7379134;19;20014;-72
2024/04/03 12:19:26;;;;;;;1.80;1.30;;;;;;;13.47;100.00;99482.38;7382335;19;20010;-72
2024/04/03 12:21:55;;;;;;;3.03;1.17;;;;;;;13.59;100.00;99521.38;7374650;19;20014;-72
2024/04/03 12:24:24;;;;;;;4.90;1.70;;;;;;;13.56;100.00;99532.25;7378996;19;20034;-70
2024/04/03 12:26:49;;;;;;;3.45;1.33;;;;;;;13.45;100.00;99529.50;7381071;19;21029;-72
2024/04/03 12:29:18;;;;;;;3.65;1.67;;;;;;;13.33;100.00;99517.13;7378747;19;20146;-73
2024/04/03 12:31:45;;;;;;;4.18;1.38;;;;;;;13.28;100.00;99533.38;7372904;19;20015;-73
2024/04/03 12:34:11;;;;;;;3.55;1.17;;;;;;;12.97;100.00;99505.47;7378487;19;20006;-71
2024/04/03 12:36:38;;;;;;;4.60;1.17;;;;;;;12.93;100.00;99506.63;7361874;19;20127;-73
2024/04/03 12:39:04;;;;;;;4.50;1.30;;;;;;;12.74;100.00;99479.69;7381402;19;20049;-73
2024/04/03 12:41:31;;;;;;;1.95;1.00;;;;;;;12.85;100.00;99501.00;7373773;19;20018;-73
2024/04/03 12:43:57;;;;;;;2.53;1.30;;;;;;;12.83;100.00;99516.22;7380374;19;20002;-73
2024/04/03 12:46:24;;;;;;;2.45;0.88;;;;;;;12.81;100.00;99512.81;7381365;19;20023;-74
2024/04/03 12:48:50;;;;;;;2.78;1.27;;;;;;;12.73;100.00;99496.56;7381030;19;20011;-74
2024/04/03 12:51:16;;;;;;;4.28;1.08;;;;;;;12.69;100.00;99500.38;7376392;19;20015;-73
2024/04/03 12:53:41;;;;;;;3.22;1.30;;;;;;;12.60;100.00;99508.97;7378228;19;20022;-73
2024/04/03 12:56:07;;;;;;;3.75;1.60;;;;;;;12.61;100.00;99492.09;7381283;19;20705;-73
2024/04/03 12:58:33;;;;;;;3.10;1.30;;;;;;;12.64;100.00;99481.25;7377852;19;20050;-73
2024/04/03 13:00:59;;;;;;;2.30;1.33;;;;;;;12.73;100.00;99501.03;7376697;19;20003;-74
2024/04/03 13:03:25;;;;;;;3.20;1.20;;;;;;;12.85;100.00;99513.44;7376900;19;20015;-74
2024/04/03 13:05:50;;;;;;;2.63;1.23;;;;;;;12.81;100.00;99507.50;7350738;19;20037;-74
2024/04/03 13:08:16;;;;;;;2.85;1.50;;;;;;;12.83;100.00;99524.19;7382129;19;20022;-73
2024/04/03 13:10:42;;;;;;;2.88;1.10;;;;;;;12.83;100.00;99521.53;7377885;19;20018;-72
2024/04/03 13:13:08;;;;;;;3.30;1.10;;;;;;;12.60;100.00;99503.66;7386922;19;20601;-72
2024/04/03 13:15:34;;;;;;;2.80;1.10;;;;;;;12.46;100.00;99485.19;7364930;19;20007;-73
2024/04/03 13:18:02;;;;;;;4.95;1.38;;;;;;;12.59;100.00;99544.50;7384985;19;20010;-73
2024/04/03 13:20:27;;;;;;;2.90;1.40;;;;;;;12.28;100.00;99511.19;7380701;19;20003;-74
2024/04/03 13:22:59;;;;;;;4.75;1.83;;;;;;;12.43;100.00;99534.06;7383176;19;20021;-73
2024/04/03 13:25:26;;;;;;;5.93;1.30;;;;;;;12.38;100.00;99530.00;7333230;19;20003;-74
2024/04/03 13:27:53;;;;;;;2.47;1.15;;;;;;;12.28;100.00;99522.66;7382952;19;20015;-73
2024/04/03 13:30:22;;;;;;;2.33;1.35;;;;;;;12.29;100.00;99529.66;7382389;19;20014;-73
2024/04/03 13:32:48;;;;;;;2.97;1.63;;;;;;;12.40;100.00;99546.69;7385671;19;20007;-74
2024/04/03 13:35:17;;;;;;;3.25;1.27;;;;;;;12.14;100.00;99514.78;7385885;19;20320;-73
2024/04/03 13:37:43;;;;;;;7.10;1.85;;;;;;;12.35;100.00;99536.38;7388679;19;20014;-74
2024/04/03 13:40:10;;;;;;;2.03;1.40;;;;;;;12.17;100.00;99522.53;7387310;19;20022;-76
2024/04/03 13:42:36;;;;;;;5.35;1.63;;;;;;;12.10;100.00;99545.16;7348823;19;20111;-75
2024/04/03 13:45:04;;;;;;;3.53;1.83;;;;;;;11.85;100.00;99503.47;7350147;19;20022;-75
2024/04/03 13:47:30;;;;;;;3.45;1.73;;;;;;;11.99;100.00;99538.84;7383876;19;20518;-75
2024/04/03 14:02:14;;;;;;;3.45;1.83;;;;;;;11.23;100.00;99511.00;7394252;19;20085;-75
2024/04/03 14:04:40;;;;;;;6.93;1.88;;;;;;;11.20;100.00;99510.34;7413405;19;20006;-77
2024/04/03 14:07:06;;;;;;;3.05;1.63;;;;;;;11.40;100.00;99546.19;7418335;19;20344;-74
2024/04/03 14:09:32;;;;;;;2.65;2.00;;;;;;;11.49;100.00;99546.44;7420786;19;20035;-77
2024/04/03 14:11:58;;;;;;;3.03;2.20;;;;;;;11.33;100.00;99508.66;7414549;19;20473;-73
2024/04/03 14:14:25;;;;;;;3.78;2.25;;;;;;;11.76;100.00;99558.94;7411445;19;20006;-72
2024/04/03 14:16:52;;;;;;;5.65;2.20;;;;;;;11.62;100.00;99519.16;7420979;19;20010;-74
2024/04/03 14:19:18;;;;;;;2.97;1.90;;;;;;;11.46;100.00;99492.78;7424327;19;20014;-77
2024/04/03 14:21:44;;;;;;;4.20;2.30;;;;;;;11.43;100.00;99490.34;7418610;19;20027;-73
2024/04/03 14:24:10;;;;;;;3.90;1.85;;;;;;;11.83;100.00;99542.50;7414749;19;20022;-76
2024/04/03 14:26:36;;;;;;;3.47;1.92;;;;;;;11.82;100.00;99546.09;7420320;19;20011;-76
2024/04/03 14:29:02;;;;;;;5.35;2.35;;;;;;;11.75;100.00;99539.47;7403032;19;20021;-76
2024/04/03 14:31:29;;;;;;;3.90;2.42;;;;;;;11.66;100.00;99529.44;7419581;19;20383;-75
2024/04/03 14:33:55;;;;;;;5.50;2.60;;;;;;;11.82;100.00;99553.22;7393985;19;20014;-76
2024/04/03 14:36:21;;;;;;;3.30;2.13;;;;;;;11.57;100.00;99525.59;7420388;19;20022;-74
2024/04/03 14:38:47;;;;;;;6.85;2.33;;;;;;;11.35;100.00;99485.50;7421839;19;20010;-74
2024/04/03 14:41:13;;;;;;;5.95;2.65;;;;;;;11.73;100.00;99559.09;7417523;19;20039;-73
2024/04/03 14:43:39;;;;;;;3.65;2.30;;;;;;;11.67;100.00;99525.00;7412803;19;20049;-76
2024/04/03 14:46:10;;;;;;;3.63;2.33;;;;;;;11.74;100.00;99534.28;7419688;19;20007;-76
2024/04/03 14:48:39;;;;;;;4.63;2.13;;;;;;;11.82;100.00;99542.59;7415292;19;20034;-71
2024/04/03 14:51:08;;;;;;;4.53;2.47;;;;;;;11.87;100.00;99545.81;7419360;19;20501;-75
2024/04/03 14:53:34;;;;;;;3.65;2.17;;;;;;;11.85;100.00;99545.06;7413300;19;20009;-73
2024/04/03 14:56:00;;;;;;;3.90;2.53;;;;;;;11.76;100.00;99543.88;7419354;19;20489;-76
2024/04/03 14:58:29;;;;;;;3.85;2.15;;;;;;;11.58;100.00;99521.16;7420108;19;20025;-76
2024/04/03 15:00:55;;;;;;;6.78;2.53;;;;;;;11.52;100.00;99514.44;7413904;19;20039;-74
2024/04/03 15:03:21;;;;;;;6.65;2.72;;;;;;;11.59;100.00;99515.75;7382257;19;20656;-72
2024/04/03 15:05:48;;;;;;;4.93;2.45;;;;;;;11.80;100.00;99550.69;7389617;19;20014;-76
2024/04/03 15:08:14;;;;;;;4.53;2.30;;;;;;;11.66;100.00;99545.34;7390175;19;20018;-72
2024/04/03 15:10:39;;;;;;;4.38;2.28;;;;;;;11.40;100.00;99527.63;7389631;19;20010;-75
2024/04/03 15:13:05;;;;;;;4.75;2.15;;;;;;;11.46;100.00;99536.06;7387158;19;20416;-71
2024/04/03 15:15:30;;;;;;;5.32;2.90;;;;;;;11.32;100.00;99517.53;7387164;19;20010;-74
2024/04/03 15:17:59;;;;;;;2.33;1.70;;;;;;;11.19;100.00;99492.75;7390145;19;20011;-76
2024/04/03 15:20:25;;;;;;;4.07;1.95;;;;;;;11.62;100.00;99540.38;7388976;19;20010;-77
2024/04/03 15:22:50;;;;;;;3.03;1.95;;;;;;;11.62;100.00;99537.72;7388167;19;20020;-76
2024/04/03 15:25:16;;;;;;;3.05;2.00;;;;;;;11.02;100.00;99440.00;7384863;19;20026;-74
2024/04/03 15:27:42;;;;;;;3.83;1.95;;;;;;;11.11;100.00;99452.66;7391226;19;20029;-77
2024/04/03 15:30:09;;;;;;;3.00;2.00;;;;;;;11.42;100.00;99516.00;7390744;19;20491;-75
2024/04/03 15:32:35;;;;;;;4.05;2.20;;;;;;;11.15;100.00;99473.56;7386687;19;20010;-74
2024/04/03 15:35:03;;;;;;;4.80;2.13;;;;;;;11.21;100.00;99485.56;7373330;19;20016;-76
2024/04/03 15:37:29;;;;;;;4.07;1.75;;;;;;;11.44;100.00;99527.34;7389927;19;20351;-76
2024/04/03 15:39:56;;;;;;;2.63;1.98;;;;;;;11.48;100.00;99531.53;7394203;19;20026;-73
2024/04/03 15:42:22;;;;;;;3.40;2.60;;;;;;;11.52;100.00;99546.25;7386871;19;20007;-77
2024/04/03 15:44:51;;;;;;;3.60;2.70;;;;;;;11.33;100.00;99513.94;7379092;19;20726;-75
2024/04/03 15:47:16;;;;;;;3.38;2.30;;;;;;;11.55;100.00;99563.78;7391773;19;20018;-76
2024/04/03 15:49:43;;;;;;;3.25;1.83;;;;;;;11.40;100.00;99531.16;7392926;19;20363;-77
2024/04/03 15:52:09;;;;;;;4.85;2.10;;;;;;;11.25;100.00;99505.63;7383837;19;20010;-76
2024/04/03 15:54:34;;;;;;;4.30;2.20;;;;;;;11.51;100.00;99552.50;7370470;19;20009;-75
2024/04/03 15:57:02;;;;;;;3.45;2.05;;;;;;;11.56;100.00;99563.69;7387918;19;20006;-74
2024/04/03 15:59:27;;;;;;;3.70;2.03;;;;;;;11.45;100.00;99534.38;7389157;19;20002;-76
2024/04/03 16:01:53;;;;;;;2.47;2.03;;;;;;;11.47;100.00;99543.06;7373587;19;20035;-75
2024/04/03 16:04:18;;;;;;;2.88;1.98;;;;;;;11.36;100.00;99531.44;7391157;19;20046;-75
2024/04/03 16:06:45;;;;;;;3.45;2.28;;;;;;;11.39;100.00;99528.59;7391407;19;20575;-76
2024/04/03 16:09:15;;;;;;;4.10;2.30;;;;;;;11.39;100.00;99532.09;7393036;19;20003;-77
2024/04/03 16:11:43;;;;;;;3.77;2.07;;;;;;;11.43;100.00;99535.41;7376496;19;20018;-74
2024/04/03 16:14:11;;;;;;;4.18;2.20;;;;;;;11.45;100.00;99538.81;7386521;19;20026;-76
2024/04/03 16:16:37;;;;;;;4.03;2.35;;;;;;;11.47;100.00;99536.91;7388851;19;20014;-74
2024/04/03 16:19:02;;;;;;;3.50;2.10;;;;;;;11.40;100.00;99520.53;7390281;19;20491;-72
2024/04/03 16:21:28;;;;;;;3.72;2.33;;;;;;;11.46;100.00;99532.56;7379078;19;20110;-74
2024/04/03 16:23:54;;;;;;;3.80;2.60;;;;;;;11.54;100.00;99539.06;7385961;19;20048;-76
2024/04/03 16:26:19;;;;;;;5.47;2.80;;;;;;;11.35;100.00;99519.13;7387964;19;20019;-75
2024/04/03 16:28:45;;;;;;;5.68;2.78;;;;;;;11.49;100.00;99530.53;7389793;19;20017;-75
2024/04/03 16:31:10;;;;;;;6.00;2.70;;;;;;;11.45;100.00;99522.91;7375217;19;20484;-75
2024/04/03 16:33:36;;;;;;;4.38;2.85;;;;;;;11.22;100.00;99496.06;7389038;19;20082;-73
2024/04/03 16:36:02;;;;;;;4.57;2.53;;;;;;;11.55;100.00;99551.38;7386023;19;20011;-76
2024/04/03 16:38:28;;;;;;;3.53;2.25;;;;;;;11.38;100.00;99530.38;7385506;19;20017;-76
2024/04/03 16:40:53;;;;;;;4.47;2.50;;;;;;;11.60;100.00;99561.69;7382961;19;20410;-73
2024/04/03 16:43:20;;;;;;;4.05;2.58;;;;;;;11.24;100.00;99512.72;7387075;19;20027;-75
2024/04/03 16:45:47;;;;;;;4.38;2.40;;;;;;;11.42;100.00;99531.91;7386676;19;20007;-78
2024/04/03 16:48:14;;;;;;;3.38;2.28;;;;;;;11.58;100.00;99550.31;7390868;19;20010;-74
2024/04/03 16:50:40;;;;;;;2.20;1.88;;;;;;;11.56;100.00;99531.00;7382314;19;20014;-75
2024/04/03 16:53:06;;;;;;;4.03;2.15;;;;;;;11.62;100.00;99540.38;7382052;19;20010;-74
2024/04/03 16:55:32;;;;;;;5.57;2.40;;;;;;;11.73;100.00;99557.28;7389268;19;20018;-74
2024/04/03 16:57:57;;;;;;;3.70;2.40;;;;;;;11.78;100.00;99562.34;7386796;19;20006;-76
2024/04/03 17:00:23;;;;;;;2.92;2.08;;;;;;;11.74;100.00;99550.19;7383703;19;20035;-75
2024/04/03 17:02:50;;;;;;;5.25;1.90;;;;;;;11.86;100.00;99557.38;7380634;19;20018;-75
2024/04/03 17:05:16;;;;;;;4.18;2.42;;;;;;;11.94;100.00;99541.81;7388581;19;20010;-74
2024/04/03 17:07:43;;;;;;;3.47;1.92;;;;;;;11.68;100.00;99509.00;7388967;19;20069;-74
2024/04/03 17:10:08;;;;;;;2.42;1.60;;;;;;;11.63;100.00;99527.03;7386487;19;20010;-76
2024/04/03 17:12:34;;;;;;;2.88;1.70;;;;;;;11.60;100.00;99533.38;7379764;19;20006;-76
2024/04/03 17:15:00;;;;;;;3.17;1.55;;;;;;;11.38;100.00;99508.34;7388432;19;20045;-73
2024/04/03 17:17:26;;;;;;;4.15;1.90;;;;;;;11.53;100.00;99531.19;7387347;19;20945;-74
2024/04/03 17:19:52;;;;;;;3.90;1.85;;;;;;;11.64;100.00;99557.03;7386659;19;20021;-74
2024/04/03 17:22:20;;;;;;;2.20;1.35;;;;;;;11.61;100.00;99555.44;7374490;19;20546;-74
2024/04/03 17:24:46;;;;;;;2.03;1.60;;;;;;;11.34;100.00;99520.91;7387142;19;20010;-74
2024/04/03 17:27:12;;;;;;;2.70;1.95;;;;;;;11.40;100.00;99536.44;7386825;19;20013;-74
2024/04/03 17:29:41;;;;;;;2.92;1.70;;;;;;;11.61;100.00;99571.34;7383038;19;20010;-74
2024/04/03 17:32:07;;;;;;;3.30;2.03;;;;;;;11.71;100.00;99571.59;7375196;19;20011;-75
2024/04/03 17:34:33;;;;;;;2.53;1.70;;;;;;;11.67;100.00;99572.72;7386929;19;20042;-74
2024/04/03 17:37:01;;;;;;;2.42;1.90;;;;;;;11.38;100.00;99533.03;7387899;19;20127;-75
2024/04/03 17:39:26;;;;;;;3.00;2.13;;;;;;;11.47;100.00;99580.19;7377579;19;20011;-74
2024/04/03 17:41:52;;;;;;;3.53;1.98;;;;;;;11.45;100.00;99579.44;7382355;19;20464;-74
2024/04/03 17:44:21;;;;;;;2.83;1.80;;;;;;;11.36;100.00;99566.75;7384727;19;20015;-73
2024/04/03 17:46:47;;;;;;;2.25;1.63;;;;;;;11.57;100.00;99607.81;7386181;19;20364;-73
2024/04/03 17:49:12;;;;;;;1.88;1.40;;;;;;;11.25;100.00;99548.88;7373226;19;20031;-73
2024/04/03 17:51:38;;;;;;;2.83;1.60;;;;;;;11.46;100.00;99590.88;7383896;19;20007;-72
2024/04/03 17:54:05;;;;;;;2.78;1.88;;;;;;;11.06;100.00;99516.53;7380996;19;20010;-73
2024/04/03 17:56:31;;;;;;;2.50;1.50;;;;;;;11.14;100.00;99563.75;7384534;19;20011;-73
2024/04/03 17:58:56;;;;;;;1.88;1.52;;;;;;;11.03;100.00;99543.19;7378799;19;20022;-73
2024/04/03 18:01:22;;;;;;;2.00;1.70;;;;;;;11.13;100.00;99567.34;7384110;19;20031;-72
2024/04/03 18:03:49;;;;;;;3.40;1.77;;;;;;;11.17;100.00;99568.88;7386785;19;20006;-73
2024/04/03 18:06:14;;;;;;;2.97;1.95;;;;;;;11.23;100.00;99597.63;7381221;19;20010;-72
2024/04/03 18:08:42;;;;;;;3.22;1.80;;;;;;;11.07;100.00;99570.38;7376747;19;20006;-73
2024/04/03 18:11:09;;;;;;;3.75;1.73;;;;;;;10.99;100.00;99562.06;7384443;19;20010;-73
2024/04/03 18:13:35;;;;;;;2.88;1.75;;;;;;;11.27;100.00;99620.34;7386884;19;20010;-74
2024/04/03 18:16:01;;;;;;;2.72;2.20;;;;;;;11.01;100.00;99589.31;7386065;19;20039;-73
2024/04/03 18:18:27;;;;;;;2.58;1.70;;;;;;;11.20;100.00;99617.19;7377946;19;20014;-73
2024/04/03 18:20:53;;;;;;;10.43;5.15;;;;;;;11.22;100.00;99615.31;7383693;19;20024;-72
2024/04/03 18:23:19;;;;;;;4.50;2.90;;;;;;;10.98;100.00;99574.44;7384809;19;20003;-74
2024/04/03 18:25:45;;;;;;;5.28;3.35;;;;;;;11.10;100.00;99607.28;7386102;19;20010;-74
2024/04/03 18:28:10;;;;;;;4.00;2.22;;;;;;;11.24;100.00;99637.28;7379302;19;20007;-72
2024/04/03 18:30:37;;;;;;;2.60;2.25;;;;;;;10.78;100.00;99564.22;7382145;19;20400;-74
2024/04/03 18:33:04;;;;;;;8.82;2.90;;;;;;;10.88;100.00;99597.97;7384664;19;20424;-73
2024/04/03 18:35:29;;;;;;;3.58;2.78;;;;;;;10.65;100.00;99556.16;7384077;19;20015;-73
2024/04/03 18:37:55;;;;;;;3.03;2.55;;;;;;;11.07;100.00;99640.09;7384739;19;20936;-72
2024/04/03 18:40:21;;;;;;;4.47;2.78;;;;;;;11.10;100.00;99639.94;7385765;19;20011;-72
2024/04/03 18:42:48;;;;;;;6.18;2.90;;;;;;;11.10;100.00;99639.94;7394355;19;20007;-74
2024/04/03 18:45:14;;;;;;;3.90;2.63;;;;;;;10.87;100.00;99625.41;7393111;19;20015;-75
2024/04/03 18:47:40;;;;;;;4.15;2.72;;;;;;;11.09;100.00;99655.91;7389541;19;20574;-73
2024/04/03 18:50:06;;;;;;;3.80;2.60;;;;;;;10.92;100.00;99634.88;7385391;19;20027;-73
2024/04/03 18:52:32;;;;;;;6.93;3.40;;;;;;;10.92;100.00;99629.59;7392371;19;20492;-73
2024/04/03 18:54:57;;;;;;;4.72;2.85;;;;;;;11.07;100.00;99641.91;7393718;19;20048;-74
2024/04/03 18:57:24;;;;;;;4.80;2.70;;;;;;;10.86;100.00;99609.63;7392135;19;20021;-72
2024/04/03 18:59:51;;;;;;;2.72;2.40;;;;;;;10.75;100.00;99590.88;7385737;19;20014;-75
2024/04/03 19:02:17;;;;;;;5.40;2.55;;;;;;;10.73;100.00;99584.81;7388717;19;20355;-73
2024/04/03 19:04:43;;;;;;;4.25;2.22;;;;;;;11.09;100.00;99648.81;7390595;19;20011;-72
2024/04/03 19:07:08;;;;;;;3.95;2.30;;;;;;;10.95;100.00;99610.88;7393457;19;20466;-72
2024/04/03 19:09:35;;;;;;;5.53;2.55;;;;;;;10.93;100.00;99600.34;7384961;19;20007;-72
2024/04/03 19:12:02;;;;;;;4.80;2.95;;;;;;;11.38;100.00;99670.88;7391039;19;20015;-73
2024/04/03 19:14:28;;;;;;;6.13;2.58;;;;;;;11.41;100.00;99675.16;7386879;19;20115;-73
2024/04/03 19:16:56;;;;;;;4.70;2.58;;;;;;;11.18;100.00;99632.34;7389207;19;20015;-71
2024/04/03 19:19:24;;;;;;;4.55;2.88;;;;;;;11.40;100.00;99658.38;7381798;19;20431;-73
2024/04/03 19:21:52;;;;;;;3.50;1.95;;;;;;;10.76;100.00;99550.22;7386419;19;20039;-73
2024/04/03 19:24:18;;;;;;;3.13;1.92;;;;;;;11.26;100.00;99634.53;7389996;19;20039;-76
2024/04/03 19:26:43;;;;;;;3.95;1.88;;;;;;;11.52;100.00;99676.19;7388245;19;20035;-73
2024/04/03 19:29:09;;;;;;;4.55;2.15;;;;;;;10.43;100.00;99501.00;7381880;19;20027;-76
2024/04/03 19:31:36;;;;;;;2.42;1.77;;;;;;;11.45;100.00;99666.91;7389123;19;20883;-74
2024/04/03 19:34:01;;;;;;;3.40;2.00;;;;;;;11.44;100.00;99674.97;7390752;19;20013;-73
2024/04/03 19:36:27;;;;;;;2.78;1.90;;;;;;;11.40;100.00;99671.63;7389991;19;20340;-75
2024/04/03 19:38:53;;;;;;;3.88;2.00;;;;;;;11.33;100.00;99656.22;7387112;19;20010;-73
2024/04/03 19:41:18;;;;;;;2.80;1.85;;;;;;;11.25;100.00;99648.72;7389003;19;20002;-73
2024/04/03 19:43:44;;;;;;;4.82;2.00;;;;;;;11.19;100.00;99639.34;7380967;19;20015;-73
2024/04/03 19:46:11;;;;;;;2.30;2.10;;;;;;;11.08;100.00;99619.75;7400534;19;20037;-74
2024/04/03 19:48:37;;;;;;;5.43;2.10;;;;;;;11.33;100.00;99651.78;7395853;19;20006;-72
2024/04/03 19:51:05;;;;;;;4.35;2.13;;;;;;;11.36;100.00;99651.56;7416548;19;20030;-72
2024/04/03 19:53:34;;;;;;;2.85;2.15;;;;;;;11.25;100.00;99627.53;7422696;19;20068;-74